createdAt,value
2019-02-11T00:00:51.711Z,53.26
2019-02-11T00:03:19.435Z,52.96
2019-02-11T00:05:47.203Z,52.98
2019-02-11T00:08:14.926Z,53.35
2019-02-11T00:10:42.685Z,54.15
2019-02-11T00:13:11.061Z,53.12
2019-02-11T00:15:38.965Z,53.62
2019-02-11T00:18:06.699Z,53.80
2019-02-11T00:20:34.452Z,53.07
2019-02-11T00:23:02.212Z,52.97
2019-02-11T00:25:29.974Z,53.34
2019-02-11T00:27:57.977Z,53.44
2019-02-11T00:30:25.729Z,53.18
2019-02-11T00:32:53.492Z,53.58
2019-02-11T00:35:21.456Z,54.56
2019-02-11T00:37:49.216Z,54.02
2019-02-11T00:40:17.045Z,53.07
2019-02-11T00:42:44.784Z,53.18
2019-02-11T00:45:12.504Z,52.61
2019-02-11T00:47:40.232Z,53.63
2019-02-11T00:50:08.568Z,53.05
2019-02-11T00:52:36.339Z,53.30
2019-02-11T00:55:04.392Z,51.58
2019-02-11T00:57:32.125Z,51.98
2019-02-11T01:00:00.176Z,52.37
2019-02-11T01:02:28.052Z,53.17
2019-02-11T01:04:55.921Z,52.61
2019-02-11T01:07:23.737Z,52.31
2019-02-11T01:09:51.477Z,52.73
2019-02-11T01:12:19.215Z,52.97
2019-02-11T01:14:46.961Z,52.13
2019-02-11T01:17:14.710Z,52.08
2019-02-11T01:19:42.485Z,52.58
2019-02-11T01:22:10.212Z,52.42
2019-02-11T01:24:37.949Z,52.00
2019-02-11T01:27:05.787Z,51.72
2019-02-11T01:29:33.552Z,51.13
2019-02-11T01:32:01.305Z,52.76
2019-02-11T01:34:29.083Z,52.45
2019-02-11T01:36:56.833Z,52.73
2019-02-11T01:39:24.639Z,52.59
2019-02-11T01:41:52.383Z,51.99
2019-02-11T01:44:20.216Z,51.87
2019-02-11T01:46:48.171Z,51.88
2019-02-11T01:49:15.926Z,52.00
2019-02-11T01:51:43.704Z,52.65
2019-02-11T01:54:11.441Z,51.74
2019-02-11T01:56:39.276Z,51.44
2019-02-11T01:59:07.096Z,52.23
2019-02-11T02:01:34.864Z,51.38
2019-02-11T02:04:02.628Z,51.49
2019-02-11T02:06:30.461Z,51.90
2019-02-11T02:08:58.204Z,52.29
2019-02-11T02:11:25.940Z,52.01
2019-02-11T02:13:54.332Z,52.55
2019-02-11T02:16:22.367Z,52.76
2019-02-11T02:18:50.116Z,53.23
2019-02-11T02:21:17.881Z,52.47
2019-02-11T02:23:45.672Z,52.58
2019-02-11T02:26:14.504Z,52.66
2019-02-11T02:28:42.255Z,52.89
2019-02-11T02:31:10.023Z,52.45
2019-02-11T02:33:37.774Z,52.26
2019-02-11T02:36:05.511Z,52.10
2019-02-11T02:38:42.599Z,51.86
2019-02-11T02:45:00.279Z,52.46
2019-02-11T02:47:28.125Z,51.65
2019-02-11T02:57:00.297Z,52.42
2019-02-11T03:05:59.821Z,53.87
2019-02-11T03:08:51.545Z,52.63
2019-02-11T03:20:11.588Z,52.74
2019-02-11T03:22:39.344Z,52.73
2019-02-11T03:25:07.262Z,53.71
2019-02-11T03:27:35.008Z,53.17
2019-02-11T03:30:02.827Z,52.91
2019-02-11T03:32:30.738Z,53.37
2019-02-11T03:34:58.534Z,53.68
2019-02-11T03:37:26.280Z,53.67
2019-02-11T03:39:54.071Z,53.65
2019-02-11T03:42:21.892Z,53.94
2019-02-11T03:44:49.809Z,54.20
2019-02-11T03:47:17.749Z,53.30
2019-02-11T03:49:45.486Z,54.57
2019-02-11T03:52:13.221Z,53.59
2019-02-11T03:54:40.956Z,54.00
2019-02-11T03:57:08.709Z,54.19
2019-02-11T03:59:36.436Z,54.35
2019-02-11T04:02:04.202Z,53.78
2019-02-11T04:04:31.944Z,53.86
2019-02-11T04:06:59.746Z,55.06
2019-02-11T04:09:27.584Z,54.57
2019-02-11T04:11:55.334Z,53.94
2019-02-11T04:14:25.099Z,53.64
2019-02-11T04:16:52.640Z,53.68
2019-02-11T04:19:20.410Z,53.92
2019-02-11T04:21:57.604Z,53.76
2019-02-11T04:24:25.404Z,53.56
2019-02-11T04:26:53.204Z,53.64
2019-02-11T04:29:21.185Z,54.04
2019-02-11T04:31:48.924Z,54.66
2019-02-11T04:34:16.664Z,54.70
2019-02-11T04:36:44.429Z,53.63
2019-02-11T04:39:12.171Z,53.30
2019-02-11T04:41:39.934Z,54.82
2019-02-11T04:44:07.804Z,55.06
2019-02-11T04:46:35.539Z,55.20
2019-02-11T04:49:03.279Z,54.75
2019-02-11T04:51:31.064Z,54.31
2019-02-11T04:53:58.791Z,54.68
2019-02-11T04:56:26.532Z,54.33
2019-02-11T04:58:54.365Z,54.08
2019-02-11T05:01:22.114Z,54.21
2019-02-11T05:03:49.877Z,54.54
2019-02-11T05:06:17.724Z,53.72
2019-02-11T05:08:45.542Z,53.68
2019-02-11T05:11:13.371Z,54.15
2019-02-11T05:13:41.223Z,53.88
2019-02-11T05:16:09.056Z,53.98
2019-02-11T05:18:36.911Z,53.63
2019-02-11T05:21:04.722Z,54.08
2019-02-11T05:23:32.470Z,54.24
2019-02-11T05:26:00.274Z,53.60
2019-02-11T05:28:28.006Z,53.82
2019-02-11T05:30:55.764Z,52.71
2019-02-11T05:33:23.749Z,52.72
2019-02-11T05:35:51.677Z,53.50
2019-02-11T05:38:19.474Z,54.25
2019-02-11T05:40:47.332Z,53.62
2019-02-11T05:43:15.118Z,52.45
2019-02-11T05:45:43.006Z,53.42
2019-02-11T05:48:10.777Z,53.07
2019-02-11T05:50:38.529Z,53.24
2019-02-11T05:53:06.713Z,53.54
2019-02-11T05:55:34.655Z,54.45
2019-02-11T05:58:02.493Z,54.26
2019-02-11T06:00:30.346Z,53.40
2019-02-11T06:02:58.117Z,53.52
2019-02-11T06:05:25.891Z,54.00
2019-02-11T06:07:53.838Z,54.29
2019-02-11T06:10:21.606Z,54.24
2019-02-11T06:12:49.325Z,53.66
2019-02-11T06:15:17.184Z,54.17
2019-02-11T06:17:44.954Z,56.33
2019-02-11T06:20:12.735Z,53.58
2019-02-11T06:22:40.588Z,54.86
2019-02-11T06:25:08.389Z,54.34
2019-02-11T06:27:36.226Z,54.13
2019-02-11T06:34:08.844Z,54.09
2019-02-11T06:39:58.840Z,53.46
2019-02-11T06:42:26.623Z,54.69
2019-02-11T06:44:54.512Z,55.36
2019-02-11T06:47:22.277Z,58.16
2019-02-11T06:49:50.066Z,54.19
2019-02-11T06:52:17.968Z,58.18
2019-02-11T06:54:45.717Z,56.01
2019-02-11T06:57:13.535Z,53.22
2019-02-11T06:59:41.386Z,54.67
2019-02-11T07:02:09.264Z,56.63
2019-02-11T07:04:37.143Z,53.90
2019-02-11T07:07:04.897Z,57.59
2019-02-11T07:09:32.640Z,55.62
2019-02-11T07:12:00.378Z,54.42
2019-02-11T07:14:28.119Z,55.52
2019-02-11T07:16:55.852Z,55.56
2019-02-11T07:19:23.608Z,55.73
2019-02-11T07:21:51.359Z,52.98
2019-02-11T07:24:19.288Z,53.79
2019-02-11T07:26:47.171Z,53.20
2019-02-11T07:29:14.945Z,54.42
2019-02-11T07:31:42.721Z,53.32
2019-02-11T07:34:10.473Z,56.66
2019-02-11T07:36:38.345Z,55.52
2019-02-11T07:39:07.770Z,54.71
2019-02-11T07:41:41.236Z,52.95
2019-02-11T07:44:22.120Z,57.72
2019-02-11T07:46:56.782Z,54.40
2019-02-11T07:49:24.657Z,55.33
2019-02-11T07:51:52.443Z,53.15
2019-02-11T07:54:20.275Z,58.15
2019-02-11T07:56:48.078Z,53.92
2019-02-11T07:59:15.819Z,55.69
2019-02-11T08:01:43.598Z,55.53
2019-02-11T08:04:11.410Z,55.18
2019-02-11T08:06:39.163Z,56.14
2019-02-11T08:09:08.654Z,52.79
2019-02-11T08:11:36.456Z,55.89
2019-02-11T08:14:04.285Z,51.94
2019-02-11T08:16:32.071Z,53.77
2019-02-11T08:18:59.878Z,52.81
2019-02-11T08:21:27.722Z,54.65
2019-02-11T08:23:55.573Z,53.52
2019-02-11T08:26:23.324Z,51.41
2019-02-11T08:28:51.212Z,51.81
2019-02-11T08:31:19.000Z,49.34
2019-02-11T08:33:46.736Z,47.94
2019-02-11T08:36:14.515Z,46.99
2019-02-11T08:38:42.354Z,47.32
2019-02-11T08:41:10.129Z,47.40
2019-02-11T08:43:37.878Z,45.50
2019-02-11T08:46:05.659Z,45.01
2019-02-11T08:48:33.468Z,44.31
2019-02-11T08:51:01.237Z,45.80
2019-02-11T08:53:28.972Z,45.75
2019-02-11T08:55:56.705Z,46.28
2019-02-11T08:58:24.567Z,44.45
2019-02-11T09:00:52.386Z,43.83
2019-02-11T09:03:20.320Z,46.43
2019-02-11T09:05:48.136Z,46.51
2019-02-11T09:08:15.936Z,47.20
2019-02-11T09:10:43.713Z,47.82
2019-02-11T09:13:11.454Z,48.74
2019-02-11T09:15:39.213Z,48.20
2019-02-11T09:18:07.019Z,48.66
2019-02-11T09:20:34.780Z,48.09
2019-02-11T09:23:02.564Z,47.58
2019-02-11T09:25:30.294Z,47.36
2019-02-11T09:27:58.467Z,49.08
2019-02-11T09:30:26.283Z,48.63
2019-02-11T09:32:54.024Z,48.83
2019-02-11T09:35:21.773Z,49.43
2019-02-11T09:37:49.587Z,48.36
2019-02-11T09:40:17.392Z,49.75
2019-02-11T09:42:45.147Z,47.51
2019-02-11T09:45:14.516Z,48.46
2019-02-11T09:47:42.347Z,49.20
2019-02-11T09:50:10.854Z,48.74
2019-02-11T09:52:38.617Z,49.01
2019-02-11T09:55:09.291Z,50.37
2019-02-11T09:57:37.028Z,49.96
2019-02-11T10:00:04.788Z,49.29
2019-02-11T10:02:32.631Z,50.06
2019-02-11T10:05:00.424Z,48.23
2019-02-11T10:07:28.196Z,49.50
2019-02-11T10:09:55.937Z,49.96
2019-02-11T10:12:23.713Z,49.96
2019-02-11T10:14:51.445Z,51.69
2019-02-11T10:17:19.237Z,50.15
2019-02-11T10:19:46.999Z,50.47
2019-02-11T10:22:14.741Z,51.16
2019-02-11T10:24:42.551Z,51.43
2019-02-11T10:27:10.317Z,51.10
2019-02-11T10:29:38.077Z,49.57
2019-02-11T10:32:05.827Z,51.41
2019-02-11T10:34:33.588Z,50.71
2019-02-11T10:37:01.348Z,49.67
2019-02-11T10:39:29.097Z,50.86
2019-02-11T10:41:56.862Z,50.57
2019-02-11T10:44:24.604Z,50.22
2019-02-11T10:46:52.443Z,50.54
2019-02-11T10:49:20.331Z,51.93
2019-02-11T10:51:48.110Z,51.33
2019-02-11T10:54:15.912Z,50.07
2019-02-11T10:56:44.041Z,50.28
2019-02-11T10:59:11.885Z,50.66
2019-02-11T11:01:39.685Z,51.43
2019-02-11T11:04:07.514Z,50.56
2019-02-11T11:06:35.271Z,52.11
2019-02-11T11:09:04.638Z,48.51
2019-02-11T11:11:32.497Z,48.55
2019-02-11T11:14:00.273Z,50.70
2019-02-11T11:16:29.665Z,48.71
2019-02-11T11:18:57.553Z,48.27
2019-02-11T11:21:25.333Z,49.22
2019-02-11T11:23:53.468Z,50.13
2019-02-11T11:26:21.429Z,50.60
2019-02-11T11:28:49.168Z,51.42
2019-02-11T11:31:17.020Z,50.82
2019-02-11T11:33:44.815Z,50.97
2019-02-11T11:36:12.644Z,49.69
2019-02-11T11:38:40.398Z,48.39
2019-02-11T11:41:08.258Z,50.81
2019-02-11T11:43:36.068Z,50.38
2019-02-11T11:46:03.939Z,51.14
2019-02-11T11:48:31.726Z,49.42
2019-02-11T11:50:59.544Z,48.73
2019-02-11T11:53:27.432Z,51.03
2019-02-11T11:55:55.191Z,50.22
2019-02-11T11:58:26.720Z,50.82
2019-02-11T12:00:52.599Z,50.99
2019-02-11T12:03:20.361Z,51.30
2019-02-11T12:05:48.237Z,51.25
2019-02-11T12:08:15.975Z,48.93
2019-02-11T12:10:43.784Z,49.34
2019-02-11T12:13:22.357Z,50.42
2019-02-11T12:15:41.848Z,49.38
2019-02-11T12:18:09.659Z,50.03
2019-02-11T12:20:37.528Z,50.95
2019-02-11T12:23:05.846Z,49.30
2019-02-11T12:25:33.769Z,51.91
2019-02-11T12:28:01.727Z,48.96
2019-02-11T12:30:29.537Z,50.73
2019-02-11T12:32:57.302Z,48.80
2019-02-11T12:35:25.255Z,49.78
2019-02-11T12:37:53.243Z,50.30
2019-02-11T12:40:21.120Z,51.75
2019-02-11T12:42:52.405Z,49.44
2019-02-11T12:45:19.254Z,50.37
2019-02-11T12:47:47.004Z,49.27
2019-02-11T12:50:15.268Z,47.54
2019-02-11T12:52:43.035Z,49.69
2019-02-11T12:55:11.077Z,47.77
2019-02-11T12:57:38.943Z,51.26
2019-02-11T13:00:08.770Z,49.74
2019-02-11T13:02:36.706Z,49.16
2019-02-11T13:05:04.811Z,49.63
2019-02-11T13:07:32.682Z,49.53
2019-02-11T13:10:00.548Z,46.68
2019-02-11T13:12:28.424Z,49.76
2019-02-11T13:14:56.506Z,48.60
2019-02-11T13:17:34.258Z,47.18
2019-02-11T13:20:07.571Z,50.24
2019-02-11T13:22:23.633Z,48.81
2019-02-11T13:24:51.499Z,49.72
2019-02-11T13:27:19.313Z,49.42
2019-02-11T13:29:47.132Z,48.77
2019-02-11T13:32:14.943Z,48.67
2019-02-11T13:34:42.799Z,46.30
2019-02-11T13:37:10.640Z,48.78
2019-02-11T13:39:38.690Z,48.65
2019-02-11T13:42:06.536Z,49.37
2019-02-11T13:44:34.322Z,48.60
2019-02-11T13:47:02.129Z,47.47
2019-02-11T13:49:29.891Z,49.77
2019-02-11T13:51:57.737Z,51.04
2019-02-11T13:54:25.587Z,49.92
2019-02-11T13:56:53.505Z,49.97
2019-02-11T13:59:21.314Z,49.01
2019-02-11T14:01:49.174Z,47.03
2019-02-11T14:04:17.007Z,49.47
2019-02-11T14:06:44.748Z,46.51
2019-02-11T14:09:12.602Z,47.31
2019-02-11T14:11:40.455Z,47.04
2019-02-11T14:14:08.342Z,47.66
2019-02-11T14:16:36.086Z,50.42
2019-02-11T14:19:03.940Z,48.21
2019-02-11T14:21:31.729Z,48.11
2019-02-11T14:23:59.758Z,47.41
2019-02-11T14:26:27.560Z,49.07
2019-02-11T14:28:55.343Z,47.71
2019-02-11T14:31:23.090Z,47.50
2019-02-11T14:33:50.850Z,46.94
2019-02-11T14:36:18.680Z,47.53
2019-02-11T14:38:46.530Z,50.68
2019-02-11T14:41:14.617Z,47.71
2019-02-11T14:43:42.560Z,46.74
2019-02-11T14:46:10.397Z,49.17
2019-02-11T14:48:38.238Z,47.10
2019-02-11T14:51:06.034Z,45.04
2019-02-11T14:53:34.276Z,47.54
2019-02-11T14:56:02.130Z,47.64
2019-02-11T14:58:29.875Z,48.22
2019-02-11T15:00:57.673Z,49.73
2019-02-11T15:03:25.412Z,46.29
2019-02-11T15:05:53.192Z,47.21
2019-02-11T15:08:21.110Z,47.83
2019-02-11T15:10:48.981Z,50.72
2019-02-11T15:13:16.745Z,49.48
2019-02-11T15:15:44.609Z,47.81
2019-02-11T15:18:12.468Z,47.53
2019-02-11T15:20:40.442Z,46.14
2019-02-11T15:23:08.226Z,49.22
2019-02-11T15:25:35.964Z,50.54
2019-02-11T15:28:03.717Z,46.86
2019-02-11T15:30:31.505Z,47.34
2019-02-11T15:32:59.312Z,46.51
2019-02-11T15:35:27.065Z,47.73
2019-02-11T15:37:54.920Z,47.37
2019-02-11T15:40:22.749Z,48.38
2019-02-11T15:42:53.150Z,48.50
2019-02-11T15:45:20.937Z,47.44
2019-02-11T15:47:49.545Z,50.09
2019-02-11T15:50:17.396Z,49.87
2019-02-11T15:52:45.268Z,49.43
2019-02-11T15:55:14.213Z,49.09
2019-02-11T15:57:41.962Z,49.04
2019-02-11T16:00:11.187Z,48.43
2019-02-11T16:02:38.929Z,49.09
2019-02-11T16:05:07.127Z,46.48
2019-02-11T16:07:34.918Z,47.05
2019-02-11T16:10:02.697Z,48.19
2019-02-11T16:12:30.614Z,46.74
2019-02-11T16:14:58.357Z,46.61
2019-02-11T16:17:26.161Z,47.92
2019-02-11T16:19:55.004Z,47.44
2019-02-11T16:22:22.743Z,47.36
2019-02-11T16:24:50.658Z,48.39
2019-02-11T16:27:18.402Z,47.34
2019-02-11T16:29:46.173Z,48.84
2019-02-11T16:32:14.009Z,45.59
2019-02-11T16:34:41.760Z,47.34
2019-02-11T16:37:09.554Z,47.98
2019-02-11T16:39:37.400Z,48.86
2019-02-11T16:42:05.217Z,46.80
2019-02-11T16:44:32.982Z,47.75
2019-02-11T16:47:00.730Z,45.67
2019-02-11T16:49:28.525Z,47.75
2019-02-11T16:51:56.356Z,47.41
2019-02-11T16:54:24.111Z,47.37
2019-02-11T16:56:52.018Z,47.32
2019-02-11T16:59:19.768Z,44.92
2019-02-11T17:01:47.581Z,46.62
2019-02-11T17:04:16.243Z,45.90
2019-02-11T17:06:44.015Z,49.04
2019-02-11T17:09:11.756Z,49.93
2019-02-11T17:11:39.639Z,48.69
2019-02-11T17:14:07.838Z,47.33
2019-02-11T17:16:35.635Z,47.06
2019-02-11T17:19:09.243Z,47.46
2019-02-11T17:21:33.030Z,48.78
2019-02-11T17:24:00.814Z,43.66
2019-02-11T17:26:28.663Z,46.61
2019-02-11T17:28:56.424Z,49.45
2019-02-11T17:31:24.221Z,44.65
2019-02-11T17:33:51.999Z,43.74
2019-02-11T17:36:19.764Z,48.27
2019-02-11T17:38:47.523Z,46.05
2019-02-11T17:41:15.441Z,44.57
2019-02-11T17:43:43.198Z,46.62
2019-02-11T17:46:11.023Z,47.68
2019-02-11T17:48:38.991Z,46.75
2019-02-11T17:51:07.774Z,46.66
2019-02-11T17:53:35.640Z,46.47
2019-02-11T17:56:03.425Z,48.41
2019-02-11T17:58:31.245Z,45.77
2019-02-11T18:01:00.774Z,47.55
2019-02-11T18:03:28.625Z,49.75
2019-02-11T18:05:56.615Z,46.89
2019-02-11T18:08:24.465Z,48.13
2019-02-11T18:10:52.208Z,48.23
2019-02-11T18:13:19.937Z,48.76
2019-02-11T18:15:47.689Z,47.92
2019-02-11T18:18:15.495Z,46.82
2019-02-11T18:20:43.292Z,49.96
2019-02-11T18:23:11.046Z,48.37
2019-02-11T18:25:38.873Z,47.49
2019-02-11T18:28:06.610Z,48.47
2019-02-11T18:30:34.697Z,50.23
2019-02-11T18:33:02.517Z,45.98
2019-02-11T18:35:30.260Z,48.59
2019-02-11T18:37:58.041Z,49.83
2019-02-11T18:40:25.805Z,49.56
2019-02-11T18:42:53.641Z,52.04
2019-02-11T18:45:21.438Z,52.56
2019-02-11T18:47:50.476Z,48.75
2019-02-11T18:50:18.600Z,49.72
2019-02-11T18:52:46.531Z,48.38
2019-02-11T18:55:14.336Z,49.53
2019-02-11T18:57:42.065Z,51.03
2019-02-11T19:00:11.355Z,49.20
2019-02-11T19:02:39.170Z,50.10
2019-02-11T19:05:06.943Z,48.59
2019-02-11T19:07:34.821Z,50.24
2019-02-11T19:10:02.724Z,47.22
2019-02-11T19:13:22.021Z,48.52
2019-02-11T19:18:49.142Z,48.75
2019-02-11T19:27:36.323Z,50.18
2019-02-11T19:30:05.731Z,48.51
2019-02-11T19:32:38.829Z,49.44
2019-02-11T19:35:05.908Z,51.56
2019-02-11T19:37:33.844Z,52.04
2019-02-11T19:40:01.624Z,49.12
2019-02-11T19:42:29.601Z,50.52
2019-02-11T19:44:57.639Z,51.05
2019-02-11T19:47:25.456Z,47.72
2019-02-11T19:49:53.205Z,48.61
2019-02-11T19:52:21.213Z,51.67
2019-02-11T19:54:48.996Z,49.69
2019-02-11T19:57:16.769Z,49.28
2019-02-11T19:59:44.534Z,52.04
2019-02-11T20:02:12.545Z,49.72
2019-02-11T20:04:40.392Z,49.36
2019-02-11T20:07:08.169Z,49.24
2019-02-11T20:09:36.016Z,46.71
2019-02-11T20:12:03.983Z,49.26
2019-02-11T20:14:31.838Z,49.79
2019-02-11T20:16:59.606Z,49.63
2019-02-11T20:19:27.448Z,50.92
2019-02-11T20:21:55.357Z,48.98
2019-02-11T20:24:23.264Z,49.59
2019-02-11T20:26:51.804Z,48.75
2019-02-11T20:29:19.877Z,50.52
2019-02-11T20:31:47.740Z,48.79
2019-02-11T20:34:15.571Z,48.63
2019-02-11T20:36:43.428Z,48.18
2019-02-11T20:39:11.426Z,53.25
2019-02-11T20:41:39.442Z,48.48
2019-02-11T20:44:07.392Z,49.17
2019-02-11T20:46:35.292Z,48.36
2019-02-11T20:49:03.204Z,48.77
2019-02-11T20:51:31.127Z,48.49
2019-02-11T20:53:59.141Z,49.56
2019-02-11T20:56:27.025Z,48.72
2019-02-11T20:58:54.803Z,49.10
2019-02-11T21:01:23.067Z,47.54
2019-02-11T21:03:50.920Z,47.48
2019-02-11T21:06:18.677Z,49.33
2019-02-11T21:08:46.941Z,46.71
2019-02-11T21:11:14.877Z,49.76
2019-02-11T21:13:42.946Z,49.19
2019-02-11T21:16:11.038Z,51.77
2019-02-11T21:18:38.895Z,48.49
2019-02-11T21:21:06.696Z,49.01
2019-02-11T21:23:34.597Z,46.42
2019-02-11T21:26:02.391Z,49.96
2019-02-11T21:28:30.297Z,48.89
2019-02-11T21:30:58.634Z,47.94
2019-02-11T21:33:26.594Z,47.92
2019-02-11T21:35:54.430Z,48.16
2019-02-11T21:38:22.334Z,46.94
2019-02-11T21:40:50.286Z,50.66
2019-02-11T21:43:18.105Z,47.91
2019-02-11T21:45:45.985Z,48.26
2019-02-11T21:48:13.900Z,47.81
2019-02-11T21:50:41.766Z,48.62
2019-02-11T21:53:09.888Z,48.42
2019-02-11T21:55:37.861Z,47.71
2019-02-11T21:58:05.847Z,48.60
2019-02-11T22:00:33.879Z,47.77
2019-02-11T22:03:01.819Z,48.44
2019-02-11T22:05:29.824Z,46.41
2019-02-11T22:07:57.809Z,47.34
2019-02-11T22:10:25.700Z,50.05
2019-02-11T22:12:53.568Z,46.16
2019-02-11T22:15:21.832Z,49.80
2019-02-11T22:17:49.872Z,47.89
2019-02-11T22:20:18.221Z,48.75
2019-02-11T22:22:46.136Z,48.65
2019-02-11T22:25:14.278Z,48.61
2019-02-11T22:27:42.149Z,46.33
2019-02-11T22:30:11.386Z,49.61
2019-02-11T22:32:39.354Z,49.67
2019-02-11T22:35:07.709Z,47.42
2019-02-11T22:37:35.516Z,50.10
2019-02-11T22:40:03.614Z,46.46
2019-02-11T22:42:31.713Z,45.58
2019-02-11T22:44:59.469Z,46.83
2019-02-11T22:47:27.341Z,47.20
2019-02-11T22:49:55.207Z,46.25
2019-02-11T22:52:24.853Z,49.81
2019-02-11T22:54:52.654Z,46.10
2019-02-11T22:57:20.500Z,46.98
2019-02-11T22:59:48.412Z,46.42
2019-02-11T23:02:16.164Z,48.03
2019-02-11T23:04:44.255Z,49.08
2019-02-11T23:07:12.113Z,48.31
2019-02-11T23:09:39.914Z,48.22
2019-02-11T23:12:07.801Z,48.76
2019-02-11T23:14:35.573Z,48.11
2019-02-11T23:17:03.597Z,48.40
2019-02-11T23:19:31.424Z,48.39
2019-02-11T23:21:59.174Z,48.75
2019-02-11T23:24:26.928Z,48.89
2019-02-11T23:26:54.801Z,48.76
2019-02-11T23:29:22.588Z,46.77
2019-02-11T23:31:50.337Z,47.99
2019-02-11T23:34:18.097Z,47.77
2019-02-11T23:36:45.852Z,48.49
2019-02-11T23:39:17.069Z,49.20
2019-02-11T23:41:45.004Z,49.41
2019-02-11T23:44:12.744Z,47.53
2019-02-11T23:46:40.517Z,48.75
2019-02-11T23:49:08.280Z,49.53
2019-02-11T23:51:36.055Z,48.48
2019-02-11T23:54:03.849Z,51.41
2019-02-11T23:56:31.693Z,50.04
2019-02-11T23:58:59.453Z,49.40
